Monessen, Pennsylvania
Current Conditions -  °F | °C
As of 11:53 AM on Saturday 20 Dec 2014 (Local Time) from KAGC Reporting Station
Clear Clear  
Wind Chill: 30°   Ceiling: Unl
Heat Index: 30°   Visibility: 10mi
Dew Point: 16°   Wind: 0mph
Humidity: 56%   Direction: NA
Pressure: 30.24"   Gusts: NA
Location:  40.16°N, 79.88°W
Report Text: KAGC 201653Z 00000KT 10SM CLR M01/M09 A3024 RMK AO2 SLP260 T10111089
Loading
Personal Weather Stations






























Interactive Weather Map New forecast layout! Learn more

10-Day Weather Forecast

Advertisements
Track Severe Weather on mobile